sensor_id;sensor_type;location;lat;lon;timestamp;P1;durP1;ratioP1;P2;durP2;ratioP2
83435;SDS011;73365;51.688;5.132;2024-01-30T00:01:15;9.88;;;5.97;;
83435;SDS011;73365;51.688;5.132;2024-01-30T00:06:06;10.02;;;6.13;;
83435;SDS011;73365;51.688;5.132;2024-01-30T00:08:33;7.90;;;5.93;;
83435;SDS011;73365;51.688;5.132;2024-01-30T00:10:58;7.28;;;5.32;;
83435;SDS011;73365;51.688;5.132;2024-01-30T00:13:23;8.95;;;6.07;;
83435;SDS011;73365;51.688;5.132;2024-01-30T00:18:14;10.13;;;6.20;;
83435;SDS011;73365;51.688;5.132;2024-01-30T00:23:05;10.53;;;6.03;;
83435;SDS011;73365;51.688;5.132;2024-01-30T00:25:30;8.93;;;5.93;;
83435;SDS011;73365;51.688;5.132;2024-01-30T00:27:55;8.85;;;6.43;;
83435;SDS011;73365;51.688;5.132;2024-01-30T00:30:22;7.63;;;5.82;;
83435;SDS011;73365;51.688;5.132;2024-01-30T00:32:49;8.50;;;6.22;;
83435;SDS011;73365;51.688;5.132;2024-01-30T00:35:14;8.55;;;5.70;;
83435;SDS011;73365;51.688;5.132;2024-01-30T00:37:39;8.48;;;6.38;;
83435;SDS011;73365;51.688;5.132;2024-01-30T00:40:05;8.27;;;5.63;;
83435;SDS011;73365;51.688;5.132;2024-01-30T00:42:31;12.05;;;6.32;;
83435;SDS011;73365;51.688;5.132;2024-01-30T00:44:57;9.95;;;6.78;;
83435;SDS011;73365;51.688;5.132;2024-01-30T00:49:48;11.10;;;5.87;;
83435;SDS011;73365;51.688;5.132;2024-01-30T00:52:13;9.43;;;5.35;;
83435;SDS011;73365;51.688;5.132;2024-01-30T00:54:38;8.77;;;5.70;;
83435;SDS011;73365;51.688;5.132;2024-01-30T00:57:04;8.35;;;5.88;;
83435;SDS011;73365;51.688;5.132;2024-01-30T00:59:29;9.23;;;6.55;;
83435;SDS011;73365;51.688;5.132;2024-01-30T01:01:55;7.18;;;5.38;;
83435;SDS011;73365;51.688;5.132;2024-01-30T01:04:20;9.68;;;5.95;;
83435;SDS011;73365;51.688;5.132;2024-01-30T01:06:46;9.05;;;5.60;;
83435;SDS011;73365;51.688;5.132;2024-01-30T01:09:12;11.63;;;6.00;;
83435;SDS011;73365;51.688;5.132;2024-01-30T01:11:37;9.63;;;6.22;;
83435;SDS011;73365;51.688;5.132;2024-01-30T01:16:29;10.10;;;6.15;;
83435;SDS011;73365;51.688;5.132;2024-01-30T01:18:54;9.18;;;6.25;;
83435;SDS011;73365;51.688;5.132;2024-01-30T01:23:45;9.75;;;6.00;;
83435;SDS011;73365;51.688;5.132;2024-01-30T01:26:11;11.18;;;6.65;;
83435;SDS011;73365;51.688;5.132;2024-01-30T01:28:36;10.13;;;6.60;;
83435;SDS011;73365;51.688;5.132;2024-01-30T01:31:01;9.73;;;6.32;;
83435;SDS011;73365;51.688;5.132;2024-01-30T01:33:33;8.65;;;6.10;;
83435;SDS011;73365;51.688;5.132;2024-01-30T01:35:59;9.30;;;6.55;;
83435;SDS011;73365;51.688;5.132;2024-01-30T01:38:27;8.40;;;6.07;;
83435;SDS011;73365;51.688;5.132;2024-01-30T01:43:18;11.93;;;6.60;;
83435;SDS011;73365;51.688;5.132;2024-01-30T01:45:43;8.88;;;5.45;;
83435;SDS011;73365;51.688;5.132;2024-01-30T01:48:09;9.77;;;6.07;;
83435;SDS011;73365;51.688;5.132;2024-01-30T01:50:34;15.23;;;6.95;;
83435;SDS011;73365;51.688;5.132;2024-01-30T01:53:00;9.43;;;5.88;;
83435;SDS011;73365;51.688;5.132;2024-01-30T01:55:26;10.32;;;6.28;;
83435;SDS011;73365;51.688;5.132;2024-01-30T01:57:53;10.35;;;6.53;;
83435;SDS011;73365;51.688;5.132;2024-01-30T02:00:19;7.60;;;5.82;;
83435;SDS011;73365;51.688;5.132;2024-01-30T02:02:45;9.85;;;6.65;;
83435;SDS011;73365;51.688;5.132;2024-01-30T02:05:11;11.40;;;6.32;;
83435;SDS011;73365;51.688;5.132;2024-01-30T02:07:36;9.00;;;6.22;;
83435;SDS011;73365;51.688;5.132;2024-01-30T02:10:03;10.45;;;6.45;;
83435;SDS011;73365;51.688;5.132;2024-01-30T02:12:28;10.55;;;6.38;;
83435;SDS011;73365;51.688;5.132;2024-01-30T02:14:54;9.13;;;6.03;;
83435;SDS011;73365;51.688;5.132;2024-01-30T02:19:45;9.90;;;6.00;;
83435;SDS011;73365;51.688;5.132;2024-01-30T02:22:11;8.10;;;6.05;;
83435;SDS011;73365;51.688;5.132;2024-01-30T02:24:36;9.82;;;6.40;;
83435;SDS011;73365;51.688;5.132;2024-01-30T02:27:02;8.98;;;5.60;;
83435;SDS011;73365;51.688;5.132;2024-01-30T02:31:53;8.82;;;6.15;;
83435;SDS011;73365;51.688;5.132;2024-01-30T02:36:44;11.00;;;5.88;;
83435;SDS011;73365;51.688;5.132;2024-01-30T02:39:10;11.18;;;6.03;;
83435;SDS011;73365;51.688;5.132;2024-01-30T02:41:36;8.40;;;5.55;;
83435;SDS011;73365;51.688;5.132;2024-01-30T02:46:28;7.53;;;5.18;;
83435;SDS011;73365;51.688;5.132;2024-01-30T02:48:54;6.82;;;5.38;;
83435;SDS011;73365;51.688;5.132;2024-01-30T02:51:19;9.30;;;5.75;;
83435;SDS011;73365;51.688;5.132;2024-01-30T02:53:44;8.52;;;5.72;;
83435;SDS011;73365;51.688;5.132;2024-01-30T02:56:10;7.65;;;5.30;;
83435;SDS011;73365;51.688;5.132;2024-01-30T02:58:36;8.95;;;6.05;;
83435;SDS011;73365;51.688;5.132;2024-01-30T03:03:27;8.70;;;5.50;;
83435;SDS011;73365;51.688;5.132;2024-01-30T03:08:17;8.47;;;5.07;;
83435;SDS011;73365;51.688;5.132;2024-01-30T03:10:43;8.30;;;5.10;;
83435;SDS011;73365;51.688;5.132;2024-01-30T03:13:08;10.15;;;6.20;;
83435;SDS011;73365;51.688;5.132;2024-01-30T03:15:33;11.47;;;5.87;;
83435;SDS011;73365;51.688;5.132;2024-01-30T03:17:59;9.63;;;5.38;;
83435;SDS011;73365;51.688;5.132;2024-01-30T03:22:49;8.40;;;5.33;;
83435;SDS011;73365;51.688;5.132;2024-01-30T03:25:16;8.23;;;5.75;;
83435;SDS011;73365;51.688;5.132;2024-01-30T03:27:42;7.63;;;5.78;;
83435;SDS011;73365;51.688;5.132;2024-01-30T03:30:07;9.35;;;5.53;;
83435;SDS011;73365;51.688;5.132;2024-01-30T03:34:59;7.33;;;5.30;;
83435;SDS011;73365;51.688;5.132;2024-01-30T03:39:50;7.53;;;4.77;;
83435;SDS011;73365;51.688;5.132;2024-01-30T03:42:16;8.15;;;5.60;;
83435;SDS011;73365;51.688;5.132;2024-01-30T03:44:42;8.77;;;5.35;;
83435;SDS011;73365;51.688;5.132;2024-01-30T03:47:08;7.22;;;5.28;;
83435;SDS011;73365;51.688;5.132;2024-01-30T03:49:34;6.47;;;5.07;;
83435;SDS011;73365;51.688;5.132;2024-01-30T03:54:25;11.57;;;5.40;;
83435;SDS011;73365;51.688;5.132;2024-01-30T03:56:50;7.18;;;4.78;;
83435;SDS011;73365;51.688;5.132;2024-01-30T03:59:16;6.55;;;5.00;;
83435;SDS011;73365;51.688;5.132;2024-01-30T04:01:42;8.60;;;5.05;;
83435;SDS011;73365;51.688;5.132;2024-01-30T04:04:09;9.55;;;5.13;;
83435;SDS011;73365;51.688;5.132;2024-01-30T04:06:34;11.70;;;5.43;;
83435;SDS011;73365;51.688;5.132;2024-01-30T04:09:00;8.85;;;4.97;;
83435;SDS011;73365;51.688;5.132;2024-01-30T04:11:25;8.60;;;5.28;;
83435;SDS011;73365;51.688;5.132;2024-01-30T04:13:50;8.38;;;5.22;;
83435;SDS011;73365;51.688;5.132;2024-01-30T04:16:20;7.38;;;4.63;;
83435;SDS011;73365;51.688;5.132;2024-01-30T04:18:47;6.95;;;5.20;;
83435;SDS011;73365;51.688;5.132;2024-01-30T04:21:12;8.38;;;4.95;;
83435;SDS011;73365;51.688;5.132;2024-01-30T04:23:37;9.48;;;4.88;;
83435;SDS011;73365;51.688;5.132;2024-01-30T04:28:28;7.18;;;4.50;;
83435;SDS011;73365;51.688;5.132;2024-01-30T04:30:55;7.65;;;5.15;;
83435;SDS011;73365;51.688;5.132;2024-01-30T04:33:20;6.65;;;4.75;;
83435;SDS011;73365;51.688;5.132;2024-01-30T04:35:46;5.90;;;4.43;;
83435;SDS011;73365;51.688;5.132;2024-01-30T04:38:11;6.95;;;4.43;;
83435;SDS011;73365;51.688;5.132;2024-01-30T04:40:37;7.78;;;4.60;;
83435;SDS011;73365;51.688;5.132;2024-01-30T04:43:02;7.10;;;5.10;;
83435;SDS011;73365;51.688;5.132;2024-01-30T04:47:53;10.03;;;4.80;;
83435;SDS011;73365;51.688;5.132;2024-01-30T04:50:18;7.68;;;4.40;;
83435;SDS011;73365;51.688;5.132;2024-01-30T04:55:09;7.60;;;4.60;;
83435;SDS011;73365;51.688;5.132;2024-01-30T04:57:34;9.75;;;5.07;;
83435;SDS011;73365;51.688;5.132;2024-01-30T05:00:00;7.10;;;5.28;;
83435;SDS011;73365;51.688;5.132;2024-01-30T05:02:25;6.40;;;4.53;;
83435;SDS011;73365;51.688;5.132;2024-01-30T05:04:51;7.68;;;4.55;;
83435;SDS011;73365;51.688;5.132;2024-01-30T05:07:17;6.95;;;4.20;;
83435;SDS011;73365;51.688;5.132;2024-01-30T05:12:08;7.63;;;4.13;;
83435;SDS011;73365;51.688;5.132;2024-01-30T05:14:34;7.85;;;4.75;;
83435;SDS011;73365;51.688;5.132;2024-01-30T05:19:24;7.45;;;3.95;;
83435;SDS011;73365;51.688;5.132;2024-01-30T05:21:50;7.88;;;4.68;;
83435;SDS011;73365;51.688;5.132;2024-01-30T05:24:15;6.75;;;4.28;;
83435;SDS011;73365;51.688;5.132;2024-01-30T05:26:40;6.47;;;4.35;;
83435;SDS011;73365;51.688;5.132;2024-01-30T05:29:06;6.47;;;4.32;;
83435;SDS011;73365;51.688;5.132;2024-01-30T05:31:32;9.23;;;4.65;;
83435;SDS011;73365;51.688;5.132;2024-01-30T05:33:59;8.98;;;5.07;;
83435;SDS011;73365;51.688;5.132;2024-01-30T05:36:25;7.32;;;4.53;;
83435;SDS011;73365;51.688;5.132;2024-01-30T05:38:50;6.53;;;4.40;;
83435;SDS011;73365;51.688;5.132;2024-01-30T05:41:16;6.78;;;4.43;;
83435;SDS011;73365;51.688;5.132;2024-01-30T05:43:41;8.73;;;4.68;;
83435;SDS011;73365;51.688;5.132;2024-01-30T05:48:32;7.60;;;4.47;;
83435;SDS011;73365;51.688;5.132;2024-01-30T05:53:24;7.28;;;4.20;;
83435;SDS011;73365;51.688;5.132;2024-01-30T05:55:50;6.75;;;4.60;;
83435;SDS011;73365;51.688;5.132;2024-01-30T06:00:40;7.13;;;4.50;;
83435;SDS011;73365;51.688;5.132;2024-01-30T06:03:07;7.05;;;5.10;;
83435;SDS011;73365;51.688;5.132;2024-01-30T06:05:33;8.70;;;4.50;;
83435;SDS011;73365;51.688;5.132;2024-01-30T06:07:58;7.35;;;4.45;;
83435;SDS011;73365;51.688;5.132;2024-01-30T06:10:23;7.93;;;3.95;;
83435;SDS011;73365;51.688;5.132;2024-01-30T06:12:49;6.13;;;4.03;;
83435;SDS011;73365;51.688;5.132;2024-01-30T06:15:14;8.07;;;4.47;;
83435;SDS011;73365;51.688;5.132;2024-01-30T06:20:06;10.47;;;4.80;;
83435;SDS011;73365;51.688;5.132;2024-01-30T06:22:31;6.75;;;4.45;;
83435;SDS011;73365;51.688;5.132;2024-01-30T06:24:57;5.78;;;3.70;;
83435;SDS011;73365;51.688;5.132;2024-01-30T06:29:47;7.77;;;4.23;;
83435;SDS011;73365;51.688;5.132;2024-01-30T06:32:13;9.95;;;4.90;;
83435;SDS011;73365;51.688;5.132;2024-01-30T06:34:38;6.00;;;4.20;;
83435;SDS011;73365;51.688;5.132;2024-01-30T06:37:05;7.80;;;4.47;;
83435;SDS011;73365;51.688;5.132;2024-01-30T06:39:30;7.45;;;4.65;;
83435;SDS011;73365;51.688;5.132;2024-01-30T06:41:56;7.97;;;4.40;;
83435;SDS011;73365;51.688;5.132;2024-01-30T06:46:46;6.90;;;3.93;;
83435;SDS011;73365;51.688;5.132;2024-01-30T06:49:11;8.07;;;4.65;;
83435;SDS011;73365;51.688;5.132;2024-01-30T06:51:37;7.43;;;4.75;;
83435;SDS011;73365;51.688;5.132;2024-01-30T06:56:28;7.00;;;4.18;;
83435;SDS011;73365;51.688;5.132;2024-01-30T07:01:19;7.70;;;5.03;;
83435;SDS011;73365;51.688;5.132;2024-01-30T07:03:44;7.97;;;4.10;;
83435;SDS011;73365;51.688;5.132;2024-01-30T07:08:37;6.55;;;4.22;;
83435;SDS011;73365;51.688;5.132;2024-01-30T07:11:06;7.40;;;4.45;;
83435;SDS011;73365;51.688;5.132;2024-01-30T07:13:32;7.47;;;4.88;;
83435;SDS011;73365;51.688;5.132;2024-01-30T07:15:58;8.07;;;4.10;;
83435;SDS011;73365;51.688;5.132;2024-01-30T07:18:24;7.57;;;4.13;;
83435;SDS011;73365;51.688;5.132;2024-01-30T07:23:16;6.50;;;4.22;;
83435;SDS011;73365;51.688;5.132;2024-01-30T07:25:45;8.70;;;4.53;;
83435;SDS011;73365;51.688;5.132;2024-01-30T07:28:13;9.45;;;5.05;;
83435;SDS011;73365;51.688;5.132;2024-01-30T07:30:41;9.75;;;4.95;;
83435;SDS011;73365;51.688;5.132;2024-01-30T07:33:07;10.63;;;5.50;;
83435;SDS011;73365;51.688;5.132;2024-01-30T07:35:33;8.35;;;5.43;;
83435;SDS011;73365;51.688;5.132;2024-01-30T07:37:59;7.68;;;4.97;;
83435;SDS011;73365;51.688;5.132;2024-01-30T07:40:24;7.05;;;4.53;;
83435;SDS011;73365;51.688;5.132;2024-01-30T07:45:15;8.40;;;4.83;;
83435;SDS011;73365;51.688;5.132;2024-01-30T07:47:41;7.43;;;4.43;;
83435;SDS011;73365;51.688;5.132;2024-01-30T07:50:07;8.00;;;4.80;;
83435;SDS011;73365;51.688;5.132;2024-01-30T07:52:33;7.22;;;4.85;;
83435;SDS011;73365;51.688;5.132;2024-01-30T07:57:24;6.97;;;4.87;;
83435;SDS011;73365;51.688;5.132;2024-01-30T08:02:15;7.20;;;4.53;;
83435;SDS011;73365;51.688;5.132;2024-01-30T08:07:06;10.13;;;4.43;;
83435;SDS011;73365;51.688;5.132;2024-01-30T08:11:56;9.90;;;5.03;;
83435;SDS011;73365;51.688;5.132;2024-01-30T08:14:22;7.80;;;4.60;;
83435;SDS011;73365;51.688;5.132;2024-01-30T08:16:48;8.48;;;5.00;;
83435;SDS011;73365;51.688;5.132;2024-01-30T08:21:39;10.93;;;4.90;;
83435;SDS011;73365;51.688;5.132;2024-01-30T08:24:05;8.65;;;5.28;;
83435;SDS011;73365;51.688;5.132;2024-01-30T08:26:32;12.93;;;5.47;;
83435;SDS011;73365;51.688;5.132;2024-01-30T08:28:58;8.70;;;5.35;;
83435;SDS011;73365;51.688;5.132;2024-01-30T08:31:23;8.50;;;5.57;;
83435;SDS011;73365;51.688;5.132;2024-01-30T08:36:15;10.67;;;5.37;;
83435;SDS011;73365;51.688;5.132;2024-01-30T08:38:41;9.32;;;5.10;;
83435;SDS011;73365;51.688;5.132;2024-01-30T08:41:07;7.90;;;4.68;;
83435;SDS011;73365;51.688;5.132;2024-01-30T08:43:32;9.35;;;5.35;;
83435;SDS011;73365;51.688;5.132;2024-01-30T08:48:26;8.15;;;4.68;;
83435;SDS011;73365;51.688;5.132;2024-01-30T08:50:53;10.57;;;5.68;;
83435;SDS011;73365;51.688;5.132;2024-01-30T08:53:19;9.65;;;4.90;;
83435;SDS011;73365;51.688;5.132;2024-01-30T08:55:44;9.32;;;5.15;;
83435;SDS011;73365;51.688;5.132;2024-01-30T08:58:10;9.30;;;5.00;;
83435;SDS011;73365;51.688;5.132;2024-01-30T09:00:36;10.18;;;4.97;;
83435;SDS011;73365;51.688;5.132;2024-01-30T09:05:27;11.68;;;5.70;;
83435;SDS011;73365;51.688;5.132;2024-01-30T09:10:18;11.40;;;5.07;;
83435;SDS011;73365;51.688;5.132;2024-01-30T09:15:10;9.40;;;5.32;;
83435;SDS011;73365;51.688;5.132;2024-01-30T09:20:01;9.97;;;5.00;;
83435;SDS011;73365;51.688;5.132;2024-01-30T09:24:51;8.57;;;4.60;;
83435;SDS011;73365;51.688;5.132;2024-01-30T09:29:42;10.23;;;5.57;;
83435;SDS011;73365;51.688;5.132;2024-01-30T09:34:34;10.50;;;5.18;;
83435;SDS011;73365;51.688;5.132;2024-01-30T09:36:59;8.68;;;5.30;;
83435;SDS011;73365;51.688;5.132;2024-01-30T09:39:25;13.05;;;5.65;;
83435;SDS011;73365;51.688;5.132;2024-01-30T09:44:25;10.73;;;5.88;;
83435;SDS011;73365;51.688;5.132;2024-01-30T09:49:19;8.95;;;5.10;;
83435;SDS011;73365;51.688;5.132;2024-01-30T09:51:45;12.63;;;5.55;;
83435;SDS011;73365;51.688;5.132;2024-01-30T09:54:11;10.95;;;5.93;;
83435;SDS011;73365;51.688;5.132;2024-01-30T09:56:39;10.55;;;5.28;;
83435;SDS011;73365;51.688;5.132;2024-01-30T09:59:04;9.15;;;5.50;;
83435;SDS011;73365;51.688;5.132;2024-01-30T10:01:30;9.73;;;5.63;;
83435;SDS011;73365;51.688;5.132;2024-01-30T10:03:56;12.60;;;5.93;;
83435;SDS011;73365;51.688;5.132;2024-01-30T10:06:21;12.82;;;5.60;;
83435;SDS011;73365;51.688;5.132;2024-01-30T10:08:48;11.15;;;6.13;;
83435;SDS011;73365;51.688;5.132;2024-01-30T10:11:13;13.55;;;6.05;;
83435;SDS011;73365;51.688;5.132;2024-01-30T10:16:04;10.95;;;5.88;;
83435;SDS011;73365;51.688;5.132;2024-01-30T10:18:31;10.90;;;5.65;;
83435;SDS011;73365;51.688;5.132;2024-01-30T10:23:23;11.27;;;5.40;;
83435;SDS011;73365;51.688;5.132;2024-01-30T10:25:50;11.45;;;5.57;;
83435;SDS011;73365;51.688;5.132;2024-01-30T10:28:16;11.45;;;5.95;;
83435;SDS011;73365;51.688;5.132;2024-01-30T10:30:42;10.50;;;5.72;;
83435;SDS011;73365;51.688;5.132;2024-01-30T10:35:32;9.93;;;5.57;;
83435;SDS011;73365;51.688;5.132;2024-01-30T10:40:24;10.80;;;5.63;;
83435;SDS011;73365;51.688;5.132;2024-01-30T10:42:53;10.80;;;5.53;;
83435;SDS011;73365;51.688;5.132;2024-01-30T10:45:20;9.82;;;5.60;;
83435;SDS011;73365;51.688;5.132;2024-01-30T10:47:52;10.63;;;5.97;;
83435;SDS011;73365;51.688;5.132;2024-01-30T10:50:18;9.40;;;6.03;;
83435;SDS011;73365;51.688;5.132;2024-01-30T10:55:09;10.20;;;5.83;;
83435;SDS011;73365;51.688;5.132;2024-01-30T11:00:02;12.73;;;5.85;;
83435;SDS011;73365;51.688;5.132;2024-01-30T11:02:41;9.77;;;6.25;;
83435;SDS011;73365;51.688;5.132;2024-01-30T11:05:07;8.25;;;5.57;;
83435;SDS011;73365;51.688;5.132;2024-01-30T11:12:26;10.43;;;6.20;;
83435;SDS011;73365;51.688;5.132;2024-01-30T11:20:26;9.00;;;4.50;;
83435;SDS011;73365;51.688;5.132;2024-01-30T11:22:53;7.03;;;4.45;;
83435;SDS011;73365;51.688;5.132;2024-01-30T11:25:21;7.72;;;4.10;;
83435;SDS011;73365;51.688;5.132;2024-01-30T11:27:49;7.40;;;3.70;;
83435;SDS011;73365;51.688;5.132;2024-01-30T11:30:22;5.32;;;3.90;;
83435;SDS011;73365;51.688;5.132;2024-01-30T11:33:00;6.20;;;3.15;;
83435;SDS011;73365;51.688;5.132;2024-01-30T11:35:42;4.97;;;2.00;;
83435;SDS011;73365;51.688;5.132;2024-01-30T11:38:08;5.30;;;1.70;;
83435;SDS011;73365;51.688;5.132;2024-01-30T11:40:36;2.40;;;1.25;;
83435;SDS011;73365;51.688;5.132;2024-01-30T11:43:03;6.93;;;1.33;;
83435;SDS011;73365;51.688;5.132;2024-01-30T11:45:32;5.18;;;1.65;;
83435;SDS011;73365;51.688;5.132;2024-01-30T11:50:25;4.93;;;1.10;;
83435;SDS011;73365;51.688;5.132;2024-01-30T11:55:16;4.57;;;1.13;;
83435;SDS011;73365;51.688;5.132;2024-01-30T11:57:42;7.15;;;1.45;;
83435;SDS011;73365;51.688;5.132;2024-01-30T12:00:15;4.00;;;0.80;;
83435;SDS011;73365;51.688;5.132;2024-01-30T12:02:43;3.22;;;1.10;;
83435;SDS011;73365;51.688;5.132;2024-01-30T12:05:09;5.30;;;1.15;;
83435;SDS011;73365;51.688;5.132;2024-01-30T12:10:00;3.28;;;0.77;;
83435;SDS011;73365;51.688;5.132;2024-01-30T12:14:52;3.83;;;0.82;;
83435;SDS011;73365;51.688;5.132;2024-01-30T12:20:10;4.22;;;0.70;;
83435;SDS011;73365;51.688;5.132;2024-01-30T12:22:45;5.82;;;0.73;;
83435;SDS011;73365;51.688;5.132;2024-01-30T12:25:18;2.88;;;0.30;;
83435;SDS011;73365;51.688;5.132;2024-01-30T12:27:47;1.48;;;0.30;;
83435;SDS011;73365;51.688;5.132;2024-01-30T12:30:23;2.13;;;0.40;;
83435;SDS011;73365;51.688;5.132;2024-01-30T12:35:16;2.17;;;0.40;;
83435;SDS011;73365;51.688;5.132;2024-01-30T12:37:42;2.45;;;0.47;;
83435;SDS011;73365;51.688;5.132;2024-01-30T12:40:08;2.90;;;0.28;;
83435;SDS011;73365;51.688;5.132;2024-01-30T12:42:35;2.70;;;0.52;;
83435;SDS011;73365;51.688;5.132;2024-01-30T12:47:29;1.30;;;0.20;;
83435;SDS011;73365;51.688;5.132;2024-01-30T12:52:21;1.47;;;0.20;;
83435;SDS011;73365;51.688;5.132;2024-01-30T12:54:47;1.75;;;0.30;;
83435;SDS011;73365;51.688;5.132;2024-01-30T12:57:13;2.92;;;0.35;;
83435;SDS011;73365;51.688;5.132;2024-01-30T13:02:04;2.17;;;0.30;;
83435;SDS011;73365;51.688;5.132;2024-01-30T13:06:55;2.23;;;0.20;;
83435;SDS011;73365;51.688;5.132;2024-01-30T13:11:46;1.70;;;0.50;;
83435;SDS011;73365;51.688;5.132;2024-01-30T13:16:37;4.35;;;1.90;;
83435;SDS011;73365;51.688;5.132;2024-01-30T13:21:28;7.50;;;2.20;;
83435;SDS011;73365;51.688;5.132;2024-01-30T13:26:19;8.88;;;2.13;;
83435;SDS011;73365;51.688;5.132;2024-01-30T13:28:45;8.95;;;2.20;;
83435;SDS011;73365;51.688;5.132;2024-01-30T13:31:11;9.05;;;2.00;;
83435;SDS011;73365;51.688;5.132;2024-01-30T13:33:37;9.88;;;2.58;;
83435;SDS011;73365;51.688;5.132;2024-01-30T13:36:02;7.13;;;1.98;;
83435;SDS011;73365;51.688;5.132;2024-01-30T13:40:53;5.93;;;2.20;;
83435;SDS011;73365;51.688;5.132;2024-01-30T13:45:44;8.73;;;2.50;;
83435;SDS011;73365;51.688;5.132;2024-01-30T13:50:35;7.77;;;2.73;;
83435;SDS011;73365;51.688;5.132;2024-01-30T13:53:01;6.72;;;2.65;;
83435;SDS011;73365;51.688;5.132;2024-01-30T13:55:28;9.13;;;3.03;;
83435;SDS011;73365;51.688;5.132;2024-01-30T13:57:53;8.95;;;2.70;;
83435;SDS011;73365;51.688;5.132;2024-01-30T14:00:18;8.55;;;3.08;;
83435;SDS011;73365;51.688;5.132;2024-01-30T14:02:45;3.83;;;2.53;;
83435;SDS011;73365;51.688;5.132;2024-01-30T14:07:36;4.33;;;2.27;;
83435;SDS011;73365;51.688;5.132;2024-01-30T14:10:04;4.88;;;1.92;;
83435;SDS011;73365;51.688;5.132;2024-01-30T14:14:55;7.93;;;2.60;;
83435;SDS011;73365;51.688;5.132;2024-01-30T14:19:46;6.80;;;1.60;;
83435;SDS011;73365;51.688;5.132;2024-01-30T14:24:37;5.87;;;1.53;;
83435;SDS011;73365;51.688;5.132;2024-01-30T14:27:05;2.97;;;1.70;;
83435;SDS011;73365;51.688;5.132;2024-01-30T14:29:30;3.85;;;1.55;;
83435;SDS011;73365;51.688;5.132;2024-01-30T14:34:22;4.90;;;1.27;;
83435;SDS011;73365;51.688;5.132;2024-01-30T14:36:47;4.20;;;1.33;;
83435;SDS011;73365;51.688;5.132;2024-01-30T14:41:38;4.13;;;1.47;;
83435;SDS011;73365;51.688;5.132;2024-01-30T14:46:30;4.57;;;1.50;;
83435;SDS011;73365;51.688;5.132;2024-01-30T14:48:55;5.68;;;1.95;;
83435;SDS011;73365;51.688;5.132;2024-01-30T14:51:22;4.05;;;1.58;;
83435;SDS011;73365;51.688;5.132;2024-01-30T14:53:48;3.55;;;1.77;;
83435;SDS011;73365;51.688;5.132;2024-01-30T14:58:38;3.87;;;1.40;;
83435;SDS011;73365;51.688;5.132;2024-01-30T15:03:29;2.97;;;1.93;;
83435;SDS011;73365;51.688;5.132;2024-01-30T15:08:20;3.30;;;1.65;;
83435;SDS011;73365;51.688;5.132;2024-01-30T15:13:11;4.50;;;2.20;;
83435;SDS011;73365;51.688;5.132;2024-01-30T15:15:37;5.38;;;2.25;;
83435;SDS011;73365;51.688;5.132;2024-01-30T15:20:27;4.43;;;2.67;;
83435;SDS011;73365;51.688;5.132;2024-01-30T15:25:18;3.43;;;2.40;;
83435;SDS011;73365;51.688;5.132;2024-01-30T15:30:09;4.03;;;2.43;;
83435;SDS011;73365;51.688;5.132;2024-01-30T15:32:36;5.60;;;2.78;;
83435;SDS011;73365;51.688;5.132;2024-01-30T15:35:01;5.35;;;2.83;;
83435;SDS011;73365;51.688;5.132;2024-01-30T15:37:29;4.38;;;2.95;;
83435;SDS011;73365;51.688;5.132;2024-01-30T15:39:55;2.97;;;2.55;;
83435;SDS011;73365;51.688;5.132;2024-01-30T15:42:21;4.93;;;3.45;;
83435;SDS011;73365;51.688;5.132;2024-01-30T15:44:47;5.28;;;3.35;;
83435;SDS011;73365;51.688;5.132;2024-01-30T15:47:12;4.85;;;3.38;;
83435;SDS011;73365;51.688;5.132;2024-01-30T15:49:39;4.70;;;3.13;;
83435;SDS011;73365;51.688;5.132;2024-01-30T15:52:07;5.63;;;3.13;;
83435;SDS011;73365;51.688;5.132;2024-01-30T15:54:40;3.97;;;3.28;;
83435;SDS011;73365;51.688;5.132;2024-01-30T15:57:06;5.18;;;2.95;;
83435;SDS011;73365;51.688;5.132;2024-01-30T15:59:32;5.68;;;3.08;;
83435;SDS011;73365;51.688;5.132;2024-01-30T16:01:58;6.07;;;3.35;;
83435;SDS011;73365;51.688;5.132;2024-01-30T16:04:24;4.38;;;3.90;;
83435;SDS011;73365;51.688;5.132;2024-01-30T16:06:50;6.63;;;3.47;;
83435;SDS011;73365;51.688;5.132;2024-01-30T16:11:41;3.17;;;2.85;;
83435;SDS011;73365;51.688;5.132;2024-01-30T16:16:34;4.77;;;3.03;;
83435;SDS011;73365;51.688;5.132;2024-01-30T16:18:59;5.68;;;2.95;;
83435;SDS011;73365;51.688;5.132;2024-01-30T16:21:28;4.60;;;3.33;;
83435;SDS011;73365;51.688;5.132;2024-01-30T16:23:53;6.65;;;3.80;;
83435;SDS011;73365;51.688;5.132;2024-01-30T16:28:44;6.22;;;2.80;;
83435;SDS011;73365;51.688;5.132;2024-01-30T16:31:11;4.10;;;2.95;;
83435;SDS011;73365;51.688;5.132;2024-01-30T16:33:43;4.75;;;3.05;;
83435;SDS011;73365;51.688;5.132;2024-01-30T16:36:09;4.68;;;3.42;;
83435;SDS011;73365;51.688;5.132;2024-01-30T16:41:02;3.85;;;3.08;;
83435;SDS011;73365;51.688;5.132;2024-01-30T16:43:27;6.05;;;3.08;;
83435;SDS011;73365;51.688;5.132;2024-01-30T16:45:54;3.47;;;2.92;;
83435;SDS011;73365;51.688;5.132;2024-01-30T16:48:24;3.75;;;3.33;;
83435;SDS011;73365;51.688;5.132;2024-01-30T16:50:49;5.55;;;3.35;;
83435;SDS011;73365;51.688;5.132;2024-01-30T16:53:15;4.68;;;3.20;;
83435;SDS011;73365;51.688;5.132;2024-01-30T16:55:42;5.88;;;3.45;;
83435;SDS011;73365;51.688;5.132;2024-01-30T16:58:07;7.22;;;4.25;;
83435;SDS011;73365;51.688;5.132;2024-01-30T17:00:34;5.82;;;4.22;;
83435;SDS011;73365;51.688;5.132;2024-01-30T17:03:02;5.55;;;4.63;;
83435;SDS011;73365;51.688;5.132;2024-01-30T17:05:28;7.00;;;4.53;;
83435;SDS011;73365;51.688;5.132;2024-01-30T17:07:54;5.25;;;4.75;;
83435;SDS011;73365;51.688;5.132;2024-01-30T17:10:20;6.15;;;4.97;;
83435;SDS011;73365;51.688;5.132;2024-01-30T17:15:11;4.47;;;4.05;;
83435;SDS011;73365;51.688;5.132;2024-01-30T17:20:02;6.43;;;4.43;;
83435;SDS011;73365;51.688;5.132;2024-01-30T17:22:28;6.13;;;4.63;;
83435;SDS011;73365;51.688;5.132;2024-01-30T17:24:54;7.13;;;4.90;;
83435;SDS011;73365;51.688;5.132;2024-01-30T17:27:20;6.00;;;4.88;;
83435;SDS011;73365;51.688;5.132;2024-01-30T17:32:11;6.85;;;5.13;;
83435;SDS011;73365;51.688;5.132;2024-01-30T17:37:04;6.57;;;4.50;;
83435;SDS011;73365;51.688;5.132;2024-01-30T17:39:32;6.70;;;5.18;;
83435;SDS011;73365;51.688;5.132;2024-01-30T17:42:02;6.20;;;5.45;;
83435;SDS011;73365;51.688;5.132;2024-01-30T17:44:28;6.47;;;4.88;;
83435;SDS011;73365;51.688;5.132;2024-01-30T17:46:53;6.60;;;5.35;;
83435;SDS011;73365;51.688;5.132;2024-01-30T17:51:59;8.15;;;6.38;;
83435;SDS011;73365;51.688;5.132;2024-01-30T17:54:27;7.93;;;6.03;;
83435;SDS011;73365;51.688;5.132;2024-01-30T17:56:56;8.32;;;6.50;;
83435;SDS011;73365;51.688;5.132;2024-01-30T17:59:35;7.75;;;6.05;;
83435;SDS011;73365;51.688;5.132;2024-01-30T18:04:39;9.25;;;6.55;;
83435;SDS011;73365;51.688;5.132;2024-01-30T18:07:05;8.27;;;6.60;;
83435;SDS011;73365;51.688;5.132;2024-01-30T18:09:32;7.72;;;6.38;;
83435;SDS011;73365;51.688;5.132;2024-01-30T18:11:58;6.15;;;5.53;;
83435;SDS011;73365;51.688;5.132;2024-01-30T18:14:28;7.90;;;6.18;;
83435;SDS011;73365;51.688;5.132;2024-01-30T18:16:54;8.13;;;6.30;;
83435;SDS011;73365;51.688;5.132;2024-01-30T18:19:27;8.98;;;6.68;;
83435;SDS011;73365;51.688;5.132;2024-01-30T18:21:56;8.23;;;6.22;;
83435;SDS011;73365;51.688;5.132;2024-01-30T18:24:47;7.18;;;5.90;;
83435;SDS011;73365;51.688;5.132;2024-01-30T18:27:15;9.25;;;6.47;;
83435;SDS011;73365;51.688;5.132;2024-01-30T18:29:42;9.32;;;6.55;;
83435;SDS011;73365;51.688;5.132;2024-01-30T18:32:07;9.02;;;6.53;;
83435;SDS011;73365;51.688;5.132;2024-01-30T18:34:32;9.15;;;6.00;;
83435;SDS011;73365;51.688;5.132;2024-01-30T18:36:58;8.10;;;6.35;;
83435;SDS011;73365;51.688;5.132;2024-01-30T18:39:25;10.93;;;6.00;;
83435;SDS011;73365;51.688;5.132;2024-01-30T18:41:55;8.13;;;6.30;;
83435;SDS011;73365;51.688;5.132;2024-01-30T18:44:27;7.68;;;5.97;;